createdAt,value
2017-12-20T00:00:30.054Z,18.30
2017-12-20T00:02:57.578Z,19.17
2017-12-20T00:05:25.100Z,19.23
2017-12-20T00:07:52.619Z,19.07
2017-12-20T00:10:20.142Z,18.17
2017-12-20T00:12:47.693Z,18.07
2017-12-20T00:15:15.222Z,19.10
2017-12-20T00:17:42.757Z,19.30
2017-12-20T00:20:10.291Z,17.70
2017-12-20T00:22:37.817Z,18.27
2017-12-20T00:25:05.351Z,18.00
2017-12-20T00:27:32.882Z,16.67
2017-12-20T00:30:00.490Z,15.97
2017-12-20T00:32:28.025Z,17.63
2017-12-20T00:34:55.562Z,16.83
2017-12-20T00:37:23.092Z,18.50
2017-12-20T00:39:50.625Z,18.13
2017-12-20T00:42:18.153Z,18.33
2017-12-20T00:44:45.687Z,17.70
2017-12-20T00:47:13.214Z,19.00
2017-12-20T00:49:40.760Z,18.20
2017-12-20T00:52:09.071Z,18.10
2017-12-20T00:54:36.595Z,18.10
2017-12-20T00:57:04.122Z,18.43
2017-12-20T00:59:31.656Z,17.73
2017-12-20T01:01:59.228Z,19.13
2017-12-20T01:04:26.767Z,17.73
2017-12-20T01:06:54.296Z,19.53
2017-12-20T01:09:21.826Z,21.27
2017-12-20T01:11:49.377Z,20.93
2017-12-20T01:14:16.913Z,19.70
2017-12-20T01:16:44.459Z,18.97
2017-12-20T01:19:11.983Z,19.53
2017-12-20T01:21:39.512Z,18.90
2017-12-20T01:24:07.028Z,17.63
2017-12-20T01:26:34.546Z,18.83
2017-12-20T01:29:02.992Z,17.87
2017-12-20T01:31:30.526Z,18.60
2017-12-20T01:33:58.058Z,18.20
2017-12-20T01:36:25.580Z,18.63
2017-12-20T01:38:53.104Z,17.67
2017-12-20T01:41:20.630Z,17.03
2017-12-20T01:43:48.972Z,15.93
2017-12-20T01:46:16.500Z,16.37
2017-12-20T01:48:44.032Z,16.23
2017-12-20T01:51:11.555Z,16.30
2017-12-20T01:53:39.077Z,17.47
2017-12-20T01:56:06.600Z,17.30
2017-12-20T01:58:34.120Z,15.67
2017-12-20T02:01:01.653Z,14.97
2017-12-20T02:03:29.174Z,16.87
2017-12-20T02:05:56.701Z,15.20
2017-12-20T02:08:24.230Z,14.03
2017-12-20T02:10:51.752Z,14.50
2017-12-20T02:13:19.291Z,13.67
2017-12-20T02:15:46.812Z,13.37
2017-12-20T02:18:14.337Z,13.70
2017-12-20T02:20:41.863Z,13.93
2017-12-20T02:23:09.387Z,13.60
2017-12-20T02:25:36.935Z,12.87
2017-12-20T02:28:04.465Z,14.33
2017-12-20T02:30:31.996Z,13.30
2017-12-20T02:32:59.524Z,11.40
2017-12-20T02:35:27.054Z,13.17
2017-12-20T02:37:54.610Z,12.97
2017-12-20T02:40:22.139Z,13.50
2017-12-20T02:42:49.668Z,13.30
2017-12-20T02:45:17.193Z,12.13
2017-12-20T02:47:44.727Z,12.90
2017-12-20T02:50:12.272Z,12.80
2017-12-20T02:52:39.799Z,12.77
2017-12-20T02:55:07.327Z,12.40
2017-12-20T02:57:34.841Z,10.87
2017-12-20T03:00:02.374Z,11.57
2017-12-20T03:02:29.893Z,12.00
2017-12-20T03:04:57.410Z,12.50
2017-12-20T03:07:24.929Z,11.30
2017-12-20T03:09:52.445Z,10.40
2017-12-20T03:12:19.971Z,10.50
2017-12-20T03:14:47.501Z,10.63
2017-12-20T03:17:15.026Z,9.67
2017-12-20T03:19:42.547Z,10.63
2017-12-20T03:22:10.080Z,11.40
2017-12-20T03:24:37.634Z,11.23
2017-12-20T03:27:05.165Z,11.00
2017-12-20T03:29:32.686Z,11.50
2017-12-20T03:32:00.213Z,10.60
2017-12-20T03:34:27.732Z,12.23
2017-12-20T03:36:55.272Z,12.10
2017-12-20T03:39:22.794Z,11.87
2017-12-20T03:41:50.316Z,12.07
2017-12-20T03:44:17.849Z,13.10
2017-12-20T03:46:45.371Z,12.87
2017-12-20T03:49:12.895Z,12.57
2017-12-20T03:51:40.452Z,12.83
2017-12-20T03:54:07.983Z,13.27
2017-12-20T03:56:35.571Z,12.10
2017-12-20T03:59:03.097Z,12.23
2017-12-20T04:01:30.621Z,17.27
2017-12-20T04:03:58.157Z,14.97
2017-12-20T04:06:25.709Z,13.23
2017-12-20T04:08:53.241Z,14.13
2017-12-20T04:11:20.758Z,13.43
2017-12-20T04:13:48.289Z,13.43
2017-12-20T04:16:15.817Z,13.00
2017-12-20T04:18:43.364Z,13.97
2017-12-20T04:21:10.894Z,14.07
2017-12-20T04:23:38.427Z,14.10
2017-12-20T04:26:05.942Z,14.30
2017-12-20T04:28:33.472Z,13.27
2017-12-20T04:31:00.989Z,13.23
2017-12-20T04:33:28.517Z,14.50
2017-12-20T04:35:56.046Z,13.93
2017-12-20T04:38:23.584Z,12.73
2017-12-20T04:40:51.111Z,13.70
2017-12-20T04:43:18.631Z,14.10
2017-12-20T04:45:46.159Z,14.23
2017-12-20T04:48:13.677Z,14.50
2017-12-20T04:50:41.201Z,18.75
2017-12-20T04:53:08.738Z,19.85
2017-12-20T04:55:36.280Z,16.27
2017-12-20T04:58:03.807Z,14.47
2017-12-20T05:00:31.367Z,14.70
2017-12-20T05:02:58.905Z,14.30
2017-12-20T05:05:26.438Z,14.57
2017-12-20T05:07:53.979Z,14.33
2017-12-20T05:10:21.506Z,14.27
2017-12-20T05:12:49.046Z,15.17
2017-12-20T05:15:16.583Z,15.07
2017-12-20T05:17:44.107Z,15.03
2017-12-20T05:20:11.627Z,15.37
2017-12-20T05:22:39.150Z,15.80
2017-12-20T05:25:06.678Z,14.63
2017-12-20T05:27:34.203Z,15.17
2017-12-20T05:30:01.728Z,14.33
2017-12-20T05:32:29.269Z,15.37
2017-12-20T05:34:56.794Z,14.67
2017-12-20T05:37:24.321Z,15.73
2017-12-20T05:39:51.838Z,15.67
2017-12-20T05:42:19.368Z,15.43
2017-12-20T05:44:46.890Z,16.43
2017-12-20T05:47:14.442Z,15.00
2017-12-20T05:49:41.973Z,17.20
2017-12-20T05:52:09.490Z,16.83
2017-12-20T05:54:37.016Z,15.23
2017-12-20T05:57:04.550Z,15.77
2017-12-20T05:59:32.075Z,15.27
2017-12-20T06:01:59.581Z,16.80
2017-12-20T06:04:27.103Z,15.87
2017-12-20T06:06:54.636Z,16.27
2017-12-20T06:09:22.177Z,16.40
2017-12-20T06:11:49.705Z,16.07
2017-12-20T06:14:17.250Z,16.53
2017-12-20T06:16:44.779Z,15.87
2017-12-20T06:19:12.297Z,15.30
2017-12-20T06:21:39.841Z,15.90
2017-12-20T06:24:07.379Z,16.37
2017-12-20T06:26:34.922Z,15.20
2017-12-20T06:29:02.454Z,16.40
2017-12-20T06:31:29.980Z,16.10
2017-12-20T06:33:57.497Z,15.13
2017-12-20T06:36:25.028Z,15.33
2017-12-20T06:38:52.553Z,15.50
2017-12-20T06:41:20.069Z,15.20
2017-12-20T06:43:47.584Z,15.30
2017-12-20T06:46:15.137Z,15.30
2017-12-20T06:48:42.659Z,14.67
2017-12-20T06:51:10.174Z,14.73
2017-12-20T06:53:37.687Z,14.27
2017-12-20T06:56:05.219Z,15.23
2017-12-20T06:58:32.745Z,14.13
2017-12-20T07:01:00.270Z,14.90
2017-12-20T07:03:27.791Z,14.37
2017-12-20T07:05:55.312Z,13.93
2017-12-20T07:08:22.841Z,13.80
2017-12-20T07:10:50.371Z,14.47
2017-12-20T07:13:17.892Z,13.23
2017-12-20T07:15:45.413Z,13.90
2017-12-20T07:18:12.944Z,13.67
2017-12-20T07:20:40.463Z,13.40
2017-12-20T07:23:07.989Z,13.60
2017-12-20T07:25:35.516Z,13.60
2017-12-20T07:28:03.038Z,14.07
2017-12-20T07:30:30.564Z,13.33
2017-12-20T07:32:58.090Z,13.00
2017-12-20T07:35:25.619Z,13.30
2017-12-20T07:37:53.142Z,14.00
2017-12-20T07:40:20.669Z,14.90
2017-12-20T07:42:48.185Z,14.90
2017-12-20T07:45:15.711Z,14.33
2017-12-20T07:47:43.229Z,13.40
2017-12-20T07:50:10.863Z,13.23
2017-12-20T07:52:38.384Z,14.90
2017-12-20T07:55:05.898Z,14.23
2017-12-20T07:57:33.445Z,12.80
2017-12-20T08:00:00.977Z,12.57
2017-12-20T08:02:28.493Z,13.57
2017-12-20T08:04:56.017Z,14.30
2017-12-20T08:07:23.552Z,13.67
2017-12-20T08:09:51.071Z,13.07
2017-12-20T08:12:18.599Z,13.30
2017-12-20T08:14:46.133Z,13.43
2017-12-20T08:17:13.659Z,13.37
2017-12-20T08:19:41.180Z,13.47
2017-12-20T08:22:08.706Z,13.47
2017-12-20T08:24:36.232Z,12.63
2017-12-20T08:27:03.763Z,12.40
2017-12-20T08:29:31.286Z,12.20
2017-12-20T08:31:58.816Z,13.90
2017-12-20T08:34:26.339Z,12.20
2017-12-20T08:36:53.860Z,12.63
2017-12-20T08:39:21.395Z,12.27
2017-12-20T08:41:48.922Z,12.43
2017-12-20T08:44:16.462Z,12.90
2017-12-20T08:46:44.005Z,12.83
2017-12-20T08:49:12.248Z,13.60
2017-12-20T08:51:39.843Z,12.03
2017-12-20T08:54:07.370Z,13.43
2017-12-20T08:56:34.897Z,13.33
2017-12-20T08:59:02.419Z,13.97
2017-12-20T09:01:29.946Z,13.40
2017-12-20T09:03:57.470Z,13.97
2017-12-20T09:06:24.995Z,13.57
2017-12-20T09:08:52.522Z,13.30
2017-12-20T09:11:20.053Z,16.90
2017-12-20T09:13:47.570Z,14.37
2017-12-20T09:16:15.136Z,13.80
2017-12-20T09:18:42.661Z,15.30
2017-12-20T09:21:10.187Z,14.73
2017-12-20T09:23:37.706Z,14.63
2017-12-20T09:26:05.281Z,14.40
2017-12-20T09:28:32.820Z,14.33
2017-12-20T09:31:00.357Z,15.13
2017-12-20T09:33:27.882Z,15.27
2017-12-20T09:35:55.408Z,15.27
2017-12-20T09:38:23.039Z,14.87
2017-12-20T09:40:50.563Z,16.10
2017-12-20T09:43:18.097Z,16.70
2017-12-20T09:45:45.622Z,15.53
2017-12-20T09:48:13.143Z,15.90
2017-12-20T09:50:40.690Z,16.50
2017-12-20T09:53:08.216Z,17.00
2017-12-20T09:55:35.752Z,17.07
2017-12-20T09:58:03.271Z,17.20
2017-12-20T10:00:30.791Z,17.57
2017-12-20T10:02:58.325Z,18.07
2017-12-20T10:05:25.845Z,18.03
2017-12-20T10:07:53.435Z,16.83
2017-12-20T10:10:20.984Z,18.17
2017-12-20T10:12:48.530Z,17.70
2017-12-20T10:15:16.048Z,18.77
2017-12-20T10:17:43.574Z,17.90
2017-12-20T10:20:11.098Z,17.63
2017-12-20T10:22:38.628Z,17.80
2017-12-20T10:25:06.159Z,17.63
2017-12-20T10:27:33.679Z,17.53
2017-12-20T10:30:01.225Z,17.83
2017-12-20T10:32:28.744Z,18.10
2017-12-20T10:34:56.280Z,18.20
2017-12-20T10:37:23.803Z,16.63
2017-12-20T10:39:51.323Z,17.03
2017-12-20T10:42:18.842Z,17.20
2017-12-20T10:44:46.378Z,16.97
2017-12-20T10:47:13.907Z,17.33
2017-12-20T10:49:41.425Z,18.10
2017-12-20T10:52:08.988Z,17.13
2017-12-20T10:54:36.514Z,17.37
2017-12-20T10:57:04.056Z,17.23
2017-12-20T10:59:31.583Z,17.47
2017-12-20T11:01:59.098Z,17.60
2017-12-20T11:04:26.613Z,17.03
2017-12-20T11:06:54.150Z,17.27
2017-12-20T11:09:21.674Z,18.33
2017-12-20T11:11:49.208Z,16.60
2017-12-20T11:14:16.734Z,16.87
2017-12-20T11:16:44.252Z,16.33
2017-12-20T11:19:11.771Z,15.87
2017-12-20T11:21:39.315Z,15.70
2017-12-20T11:24:06.827Z,16.20
2017-12-20T11:26:34.393Z,16.30
2017-12-20T11:29:01.938Z,14.47
2017-12-20T11:31:29.467Z,15.43
2017-12-20T11:33:56.998Z,16.53
2017-12-20T11:36:24.517Z,16.00
2017-12-20T11:38:52.029Z,15.60
2017-12-20T11:41:19.536Z,16.57
2017-12-20T11:43:47.050Z,16.93
2017-12-20T11:46:14.574Z,15.53
2017-12-20T11:48:42.093Z,16.93
2017-12-20T11:51:09.626Z,15.30
2017-12-20T11:53:37.167Z,14.97
2017-12-20T11:56:04.687Z,16.10
2017-12-20T11:58:32.224Z,15.40
2017-12-20T12:00:59.785Z,14.90
2017-12-20T12:03:27.441Z,14.80
2017-12-20T12:05:54.967Z,14.83
2017-12-20T12:08:22.494Z,15.30
2017-12-20T12:10:50.012Z,15.23
2017-12-20T12:13:17.525Z,15.53
2017-12-20T12:15:45.045Z,15.23
2017-12-20T12:18:12.573Z,15.03
2017-12-20T12:20:40.099Z,14.70
2017-12-20T12:23:07.618Z,15.47
2017-12-20T12:25:35.148Z,14.60
2017-12-20T12:28:03.063Z,15.13
2017-12-20T12:30:30.581Z,15.20
2017-12-20T12:32:58.108Z,15.17
2017-12-20T12:35:25.646Z,14.30
2017-12-20T12:37:53.204Z,14.40
2017-12-20T12:40:20.741Z,15.03
2017-12-20T12:42:48.274Z,13.60
2017-12-20T12:45:15.792Z,15.87
2017-12-20T12:47:43.316Z,14.47
2017-12-20T12:50:10.849Z,14.80
2017-12-20T12:52:38.369Z,14.20
2017-12-20T12:55:05.924Z,14.57
2017-12-20T12:57:33.440Z,14.43
2017-12-20T13:00:00.954Z,13.90
2017-12-20T13:02:28.473Z,13.50
2017-12-20T13:04:55.998Z,13.87
2017-12-20T13:07:23.562Z,13.73
2017-12-20T13:09:51.077Z,15.03
2017-12-20T13:12:18.608Z,14.67
2017-12-20T13:14:47.225Z,14.00
2017-12-20T13:17:14.752Z,13.70
2017-12-20T13:19:42.279Z,13.33
2017-12-20T13:22:09.799Z,14.00
2017-12-20T13:24:37.330Z,13.53
2017-12-20T13:27:05.139Z,13.53
2017-12-20T13:29:32.694Z,13.63
2017-12-20T13:32:00.224Z,12.73
2017-12-20T13:34:27.748Z,13.50
2017-12-20T13:36:55.278Z,14.10
2017-12-20T13:39:22.798Z,13.00
2017-12-20T13:41:50.305Z,13.03
2017-12-20T13:44:17.829Z,11.97
2017-12-20T13:46:45.370Z,12.80
2017-12-20T13:49:12.892Z,12.37
2017-12-20T13:51:40.406Z,12.93
2017-12-20T13:54:07.920Z,12.30
2017-12-20T13:56:35.432Z,13.07
2017-12-20T13:59:03.138Z,13.47
2017-12-20T14:01:30.659Z,13.40
2017-12-20T14:03:58.188Z,13.17
2017-12-20T14:06:25.713Z,13.80
2017-12-20T14:08:53.260Z,14.43
2017-12-20T14:11:20.797Z,14.23
2017-12-20T14:13:48.325Z,14.43
2017-12-20T14:16:15.910Z,14.33
2017-12-20T14:18:43.413Z,15.07
2017-12-20T14:21:10.935Z,14.80
2017-12-20T14:23:38.480Z,14.70
2017-12-20T14:26:06.000Z,15.40
2017-12-20T14:28:33.511Z,15.17
2017-12-20T14:31:01.047Z,14.67
2017-12-20T14:33:28.570Z,14.93
2017-12-20T14:35:56.089Z,14.60
2017-12-20T14:38:23.614Z,13.97
2017-12-20T14:40:51.146Z,14.43
2017-12-20T14:43:18.668Z,12.67
2017-12-20T14:45:46.189Z,13.40
2017-12-20T14:48:13.718Z,13.77
2017-12-20T14:50:41.242Z,13.23
2017-12-20T14:53:08.766Z,12.77
2017-12-20T14:55:36.298Z,14.00
2017-12-20T14:58:03.831Z,13.50
2017-12-20T15:00:31.374Z,14.43
2017-12-20T15:02:58.904Z,14.60
2017-12-20T15:05:26.441Z,14.87
2017-12-20T15:07:53.954Z,15.47
2017-12-20T15:10:21.477Z,15.50
2017-12-20T15:12:49.016Z,14.90
2017-12-20T15:15:16.539Z,16.80
2017-12-20T15:17:44.065Z,16.83
2017-12-20T15:20:11.590Z,17.03
2017-12-20T15:22:39.114Z,16.77
2017-12-20T15:25:06.645Z,15.43
2017-12-20T15:27:34.166Z,15.87
2017-12-20T15:30:01.701Z,16.90
2017-12-20T15:32:29.221Z,18.73
2017-12-20T15:34:56.749Z,17.47
2017-12-20T15:37:24.270Z,17.13
2017-12-20T15:39:51.794Z,16.73
2017-12-20T15:42:19.334Z,17.60
2017-12-20T15:44:46.879Z,18.03
2017-12-20T15:47:14.406Z,17.07
2017-12-20T15:49:41.939Z,19.73
2017-12-20T15:52:09.459Z,19.20
2017-12-20T15:54:36.987Z,19.87
2017-12-20T15:57:04.511Z,19.83
2017-12-20T15:59:32.029Z,19.83
2017-12-20T16:01:59.636Z,19.83
2017-12-20T16:04:27.162Z,20.20
2017-12-20T16:06:54.682Z,19.47
2017-12-20T16:09:22.207Z,20.90
2017-12-20T16:11:49.734Z,20.60
2017-12-20T16:14:17.250Z,19.60
2017-12-20T16:16:44.769Z,19.93
2017-12-20T16:19:12.297Z,19.87
2017-12-20T16:21:39.832Z,19.60
2017-12-20T16:24:07.354Z,21.07
2017-12-20T16:26:34.883Z,21.97
2017-12-20T16:29:02.410Z,20.83
2017-12-20T16:31:29.930Z,20.73
2017-12-20T16:33:57.454Z,21.67
2017-12-20T16:36:24.985Z,21.47
2017-12-20T16:38:52.504Z,21.10
2017-12-20T16:41:20.038Z,22.43
2017-12-20T16:43:47.563Z,23.23
2017-12-20T16:46:15.110Z,22.50
2017-12-20T16:48:42.658Z,21.00
2017-12-20T16:51:10.196Z,21.60
2017-12-20T16:53:42.698Z,21.80
2017-12-20T16:56:10.219Z,22.20
2017-12-20T16:58:37.746Z,21.43
2017-12-20T17:01:05.270Z,24.23
2017-12-20T17:03:32.790Z,22.53
2017-12-20T17:06:00.310Z,22.93
2017-12-20T17:08:27.832Z,21.93
2017-12-20T17:10:55.366Z,22.67
2017-12-20T17:13:22.895Z,21.73
2017-12-20T17:15:50.425Z,22.07
2017-12-20T17:18:17.971Z,23.07
2017-12-20T17:20:45.547Z,22.53
2017-12-20T17:23:13.080Z,23.10
2017-12-20T17:25:40.620Z,21.97
2017-12-20T17:28:08.149Z,23.13
2017-12-20T17:30:35.670Z,22.53
2017-12-20T17:33:03.194Z,24.63
2017-12-20T17:35:30.712Z,22.67
2017-12-20T17:37:58.444Z,23.37
2017-12-20T17:40:25.971Z,23.73
2017-12-20T17:42:53.488Z,22.67
2017-12-20T17:45:21.018Z,23.90
2017-12-20T17:47:48.534Z,23.50
2017-12-20T17:50:16.064Z,24.13
2017-12-20T17:52:43.616Z,23.00
2017-12-20T17:55:11.165Z,23.57
2017-12-20T17:57:38.683Z,23.33
2017-12-20T18:00:06.200Z,24.33
2017-12-20T18:02:33.729Z,22.27
2017-12-20T18:05:01.253Z,24.00
2017-12-20T18:07:28.785Z,24.43
2017-12-20T18:09:56.350Z,23.73
2017-12-20T18:12:27.046Z,23.13
2017-12-20T18:14:54.577Z,24.33
2017-12-20T18:17:22.130Z,24.00
2017-12-20T18:19:49.651Z,24.17
2017-12-20T18:22:17.181Z,25.03
2017-12-20T18:24:44.707Z,24.60
2017-12-20T18:27:12.246Z,24.10
2017-12-20T18:29:39.767Z,24.80
2017-12-20T18:32:07.295Z,24.87
2017-12-20T18:34:34.846Z,25.03
2017-12-20T18:37:02.391Z,24.17
2017-12-20T18:39:29.934Z,25.53
2017-12-20T18:41:57.462Z,25.60
2017-12-20T18:44:24.984Z,25.70
2017-12-20T18:46:52.504Z,24.97
2017-12-20T18:49:20.038Z,25.23
2017-12-20T18:51:47.558Z,25.40
2017-12-20T18:54:15.092Z,26.43
2017-12-20T18:56:42.620Z,26.73
2017-12-20T18:59:10.138Z,26.33
2017-12-20T19:01:37.714Z,25.53
2017-12-20T19:04:05.326Z,26.20
2017-12-20T19:06:32.848Z,26.40
2017-12-20T19:09:00.376Z,26.07
2017-12-20T19:11:28.104Z,27.00
2017-12-20T19:13:55.630Z,25.77
2017-12-20T19:16:23.154Z,26.00
2017-12-20T19:18:50.665Z,26.80
2017-12-20T19:21:18.210Z,26.73
2017-12-20T19:23:45.735Z,26.10
2017-12-20T19:26:13.260Z,26.53
2017-12-20T19:28:40.781Z,28.07
2017-12-20T19:31:08.306Z,26.97
2017-12-20T19:33:35.836Z,27.27
2017-12-20T19:36:03.367Z,24.83
2017-12-20T19:48:15.906Z,26.37
2017-12-20T19:50:43.428Z,29.93
2017-12-20T19:53:10.951Z,28.87
2017-12-20T19:55:38.482Z,28.30
2017-12-20T19:58:06.001Z,29.40
2017-12-20T20:00:33.535Z,27.73
2017-12-20T20:03:01.052Z,30.03
2017-12-20T20:05:28.579Z,27.13
2017-12-20T20:07:56.112Z,29.10
2017-12-20T20:10:23.635Z,28.93
2017-12-20T20:12:51.161Z,28.63
2017-12-20T20:15:18.824Z,28.27
2017-12-20T20:17:46.354Z,28.87
2017-12-20T20:20:13.974Z,28.87
2017-12-20T20:22:41.673Z,28.03
2017-12-20T20:25:09.210Z,27.37
2017-12-20T20:27:36.813Z,28.20
2017-12-20T20:30:04.346Z,28.90
2017-12-20T20:32:31.878Z,29.07
2017-12-20T20:34:59.430Z,29.30
2017-12-20T20:37:26.990Z,29.73
2017-12-20T20:39:54.513Z,28.53
2017-12-20T20:42:22.042Z,27.97
2017-12-20T20:44:49.574Z,30.97
2017-12-20T20:47:17.107Z,29.07
2017-12-20T20:49:44.634Z,28.23
2017-12-20T20:52:12.180Z,28.43
2017-12-20T20:54:39.752Z,29.80
2017-12-20T20:57:07.290Z,28.90
2017-12-20T20:59:34.858Z,28.43
2017-12-20T21:02:02.390Z,30.30
2017-12-20T21:04:29.914Z,28.70
2017-12-20T21:06:57.437Z,27.23
2017-12-20T21:09:25.122Z,27.97
2017-12-20T21:11:58.465Z,27.37
2017-12-20T21:14:25.995Z,27.67
2017-12-20T21:16:53.542Z,27.63
2017-12-20T21:19:21.102Z,28.43
2017-12-20T21:21:49.433Z,27.83
2017-12-20T21:24:16.944Z,28.40
2017-12-20T21:26:44.471Z,27.53
2017-12-20T21:29:12.057Z,27.53
2017-12-20T21:31:39.618Z,26.20
2017-12-20T21:34:07.198Z,27.37
2017-12-20T21:36:34.729Z,26.30
2017-12-20T21:39:02.248Z,27.60
2017-12-20T21:41:29.770Z,27.43
2017-12-20T21:43:57.290Z,28.30
2017-12-20T21:46:24.820Z,27.10
2017-12-20T21:48:52.363Z,26.80
2017-12-20T21:51:19.922Z,26.33
2017-12-20T21:53:47.503Z,27.60
2017-12-20T21:56:15.030Z,27.27
2017-12-20T21:58:42.548Z,25.90
2017-12-20T22:01:10.078Z,27.27
2017-12-20T22:03:37.607Z,26.70
2017-12-20T22:06:05.132Z,27.33
2017-12-20T22:08:32.682Z,26.53
2017-12-20T22:11:00.209Z,24.77
2017-12-20T22:13:28.014Z,27.03
2017-12-20T22:15:55.539Z,27.00
2017-12-20T22:18:23.105Z,25.87
2017-12-20T22:20:50.663Z,25.80
2017-12-20T22:23:18.191Z,26.80
2017-12-20T22:25:45.731Z,25.93
2017-12-20T22:28:13.258Z,25.60
2017-12-20T22:30:40.777Z,25.40
2017-12-20T22:33:08.300Z,25.93
2017-12-20T22:35:35.832Z,24.97
2017-12-20T22:38:03.365Z,25.83
2017-12-20T22:40:30.890Z,25.53
2017-12-20T22:42:58.422Z,24.80
2017-12-20T22:45:25.948Z,25.63
2017-12-20T22:47:53.478Z,25.13
2017-12-20T22:50:21.005Z,31.17
2017-12-20T22:52:48.526Z,25.53
2017-12-20T22:55:16.048Z,24.83
2017-12-20T22:57:43.564Z,24.37
2017-12-20T23:00:11.106Z,23.70
2017-12-20T23:02:38.633Z,23.47
2017-12-20T23:05:06.172Z,23.83
2017-12-20T23:07:33.691Z,21.93
2017-12-20T23:10:01.215Z,23.77
2017-12-20T23:12:28.736Z,23.03
2017-12-20T23:14:56.255Z,22.33
2017-12-20T23:17:24.503Z,22.57
2017-12-20T23:19:52.029Z,22.00
2017-12-20T23:22:19.548Z,22.43
2017-12-20T23:24:47.066Z,20.80
2017-12-20T23:27:14.589Z,21.00
2017-12-20T23:29:42.120Z,21.40
2017-12-20T23:32:09.657Z,21.77
2017-12-20T23:34:37.197Z,19.83
2017-12-20T23:37:04.724Z,20.37
2017-12-20T23:39:32.264Z,19.47
2017-12-20T23:41:59.852Z,18.70
2017-12-20T23:44:27.378Z,18.80
2017-12-20T23:46:54.935Z,16.87
2017-12-20T23:49:22.464Z,17.63
2017-12-20T23:51:50.004Z,17.77
2017-12-20T23:54:17.526Z,17.17
2017-12-20T23:56:45.057Z,16.50
2017-12-20T23:59:12.598Z,15.00
